Time;durP1;ratioP1;P1;durP2;ratioP2;P2;SDS_P1;SDS_P2;PMS_P1;PMS_P2;Temp;Humidity;BMP_temperature;BMP_pressure;BME280_temperature;BME280_humidity;BME280_pressure;Samples;Min_cycle;Max_cycle;Signal;HPM_P1;HPM_P2
2021/11/24 00:01:50;;;;;;;8.18;3.72;;;4.70;81.70;;;;;;4967918;28;20422;-66
2021/11/24 00:04:23;;;;;;;7.60;2.72;;;4.70;81.70;;;;;;4972512;28;20050;-65
2021/11/24 00:06:54;;;;;;;6.60;2.80;;;4.70;81.70;;;;;;4973670;28;20050;-65
2021/11/24 00:09:23;;;;;;;5.90;2.15;;;4.70;81.70;;;;;;4974113;28;20043;-66
2021/11/24 00:11:56;;;;;;;7.78;3.20;;;4.70;81.80;;;;;;4961803;28;20050;-65
2021/11/24 00:14:23;;;;;;;6.85;2.88;;;4.70;81.90;;;;;;4973339;28;20054;-66
2021/11/24 00:16:50;;;;;;;7.65;2.85;;;4.70;81.90;;;;;;4970721;28;20050;-66
2021/11/24 00:19:17;;;;;;;4.38;2.20;;;4.70;82.00;;;;;;4970703;28;20049;-66
2021/11/24 00:21:44;;;;;;;5.57;2.67;;;4.70;81.90;;;;;;4974364;28;20055;-64
2021/11/24 00:24:10;;;;;;;7.45;3.35;;;4.70;81.90;;;;;;4969006;28;20127;-69
2021/11/24 00:26:39;;;;;;;8.63;3.55;;;4.70;81.90;;;;;;4971944;28;20055;-68
2021/11/24 00:29:06;;;;;;;7.10;3.13;;;4.70;81.80;;;;;;4966668;28;20054;-66
2021/11/24 00:31:33;;;;;;;7.72;2.70;;;4.70;81.80;;;;;;4970813;28;20057;-66
2021/11/24 00:34:00;;;;;;;8.02;2.78;;;4.70;81.90;;;;;;4971580;28;20047;-67
2021/11/24 00:36:28;;;;;;;6.57;2.85;;;4.70;81.80;;;;;;4968494;28;20141;-66
2021/11/24 00:38:55;;;;;;;8.10;3.13;;;4.70;81.80;;;;;;4972093;28;20050;-69
2021/11/24 00:41:22;;;;;;;6.70;2.88;;;4.70;81.80;;;;;;4967534;28;20050;-65
2021/11/24 00:43:50;;;;;;;7.32;3.35;;;4.70;81.80;;;;;;4968337;28;20557;-67
2021/11/24 00:46:17;;;;;;;7.15;2.80;;;4.70;81.70;;;;;;4971559;28;20052;-65
2021/11/24 00:48:44;;;;;;;6.22;2.95;;;4.70;81.80;;;;;;4967794;28;20107;-66
2021/11/24 00:51:11;;;;;;;7.97;3.10;;;4.70;81.70;;;;;;4969640;28;20043;-68
2021/11/24 00:53:38;;;;;;;7.30;3.42;;;4.70;81.70;;;;;;4968251;28;20051;-67
2021/11/24 00:56:05;;;;;;;7.57;3.10;;;4.70;81.80;;;;;;4966164;28;20051;-67
2021/11/24 00:58:32;;;;;;;6.90;2.50;;;4.70;81.80;;;;;;4972447;28;20054;-67
2021/11/24 01:01:01;;;;;;;7.30;2.80;;;4.70;81.80;;;;;;4960697;28;20047;-67
2021/11/24 01:03:31;;;;;;;6.43;3.00;;;4.70;81.90;;;;;;4955069;28;20403;-66
2021/11/24 01:05:58;;;;;;;5.32;2.45;;;4.70;81.90;;;;;;4976405;28;20046;-65
2021/11/24 01:08:25;;;;;;;5.45;2.45;;;4.70;81.90;;;;;;4979174;28;20479;-69
2021/11/24 01:10:52;;;;;;;5.38;2.38;;;4.70;81.90;;;;;;4977353;28;20056;-65
2021/11/24 01:13:20;;;;;;;3.60;1.52;;;4.70;81.90;;;;;;4976146;28;20070;-65
2021/11/24 01:15:47;;;;;;;5.72;2.20;;;4.70;82.00;;;;;;4980085;28;20092;-66
2021/11/24 01:18:15;;;;;;;3.95;2.00;;;4.70;82.00;;;;;;4976482;28;20049;-65
2021/11/24 01:20:43;;;;;;;8.35;2.80;;;4.70;81.90;;;;;;4975064;28;20140;-65
2021/11/24 01:23:09;;;;;;;4.50;1.73;;;4.70;82.00;;;;;;4976120;28;20130;-68
2021/11/24 01:25:36;;;;;;;4.50;2.00;;;4.70;82.00;;;;;;4977014;28;20038;-67
2021/11/24 01:28:04;;;;;;;7.28;2.40;;;4.70;82.00;;;;;;4976107;28;20049;-66
2021/11/24 01:30:31;;;;;;;2.40;1.05;;;4.70;82.10;;;;;;4976689;28;20058;-66
2021/11/24 01:32:58;;;;;;;2.70;1.80;;;4.70;82.20;;;;;;4975498;28;20046;-66
2021/11/24 01:35:26;;;;;;;4.53;1.45;;;4.70;82.10;;;;;;4978457;28;20494;-65
2021/11/24 01:37:53;;;;;;;5.65;1.10;;;4.70;82.10;;;;;;4975938;28;20050;-65
2021/11/24 01:40:20;;;;;;;2.50;1.05;;;4.70;82.20;;;;;;4976949;28;20050;-65
2021/11/24 01:42:47;;;;;;;4.25;1.08;;;4.70;82.10;;;;;;4975981;28;20038;-64
2021/11/24 01:45:17;;;;;;;3.05;1.10;;;4.70;82.20;;;;;;4975886;28;20050;-68
2021/11/24 01:47:44;;;;;;;2.25;1.02;;;4.80;82.20;;;;;;4975752;28;20073;-66
2021/11/24 01:50:12;;;;;;;2.08;0.90;;;4.70;82.30;;;;;;4972928;28;20061;-67
2021/11/24 01:52:41;;;;;;;1.90;1.00;;;4.70;82.30;;;;;;4971489;28;20047;-66
2021/11/24 01:55:10;;;;;;;2.72;0.82;;;4.70;82.30;;;;;;4970693;28;20062;-66
2021/11/24 01:57:39;;;;;;;1.23;0.55;;;4.70;82.30;;;;;;4971590;28;20412;-67
2021/11/24 02:00:07;;;;;;;2.13;0.80;;;4.70;82.30;;;;;;4965740;28;20929;-69
2021/11/24 02:02:39;;;;;;;3.67;0.77;;;4.70;82.40;;;;;;4970370;28;20420;-66
2021/11/24 02:05:07;;;;;;;1.83;0.90;;;4.70;82.40;;;;;;4969824;28;20054;-66
2021/11/24 02:07:34;;;;;;;2.75;1.00;;;4.70;82.40;;;;;;4969312;28;20054;-68
2021/11/24 02:10:02;;;;;;;2.85;0.98;;;4.70;82.30;;;;;;4967130;28;20085;-67
2021/11/24 02:12:29;;;;;;;3.90;1.40;;;4.70;82.40;;;;;;4967938;28;20050;-66
2021/11/24 02:14:56;;;;;;;4.72;2.13;;;4.70;82.40;;;;;;4966072;28;20054;-65
2021/11/24 02:17:23;;;;;;;2.55;1.50;;;4.60;82.40;;;;;;4970311;28;20671;-67
2021/11/24 02:19:50;;;;;;;3.70;1.70;;;4.60;82.40;;;;;;4971048;28;20767;-66
2021/11/24 02:22:19;;;;;;;4.85;1.90;;;4.60;82.40;;;;;;4968591;28;20058;-65
2021/11/24 02:24:46;;;;;;;4.18;1.70;;;4.60;82.40;;;;;;4969336;28;20057;-67
2021/11/24 02:27:14;;;;;;;4.45;1.80;;;4.60;82.30;;;;;;4965036;28;20058;-67
2021/11/24 02:29:44;;;;;;;4.55;2.22;;;4.70;82.30;;;;;;4965860;28;20145;-67
2021/11/24 02:32:12;;;;;;;4.47;1.58;;;4.70;82.30;;;;;;4975676;28;20415;-66
2021/11/24 02:34:39;;;;;;;4.40;1.83;;;4.60;82.30;;;;;;4974484;28;20391;-66
2021/11/24 02:37:06;;;;;;;4.07;1.52;;;4.60;82.30;;;;;;4973191;28;20039;-66
2021/11/24 02:39:34;;;;;;;5.50;3.38;;;4.70;82.40;;;;;;4976361;28;20058;-67
2021/11/24 02:42:02;;;;;;;6.93;2.63;;;4.70;82.40;;;;;;4977982;28;20056;-65
2021/11/24 02:44:35;;;;;;;4.25;1.83;;;4.60;82.40;;;;;;4979710;28;20055;-67
2021/11/24 02:47:08;;;;;;;3.63;1.85;;;4.60;82.50;;;;;;4983955;28;20118;-65
2021/11/24 02:49:36;;;;;;;4.95;2.33;;;4.60;82.50;;;;;;4981268;28;20054;-66
2021/11/24 02:52:03;;;;;;;7.45;2.25;;;4.70;82.50;;;;;;4980133;28;20046;-66
2021/11/24 02:54:30;;;;;;;5.25;2.47;;;4.70;82.40;;;;;;4979814;28;20049;-65
2021/11/24 02:57:00;;;;;;;4.72;2.22;;;4.70;82.40;;;;;;4979450;28;22347;-66
2021/11/24 02:59:30;;;;;;;4.78;1.70;;;4.70;82.40;;;;;;4981279;28;20133;-69
2021/11/24 03:01:56;;;;;;;4.03;1.60;;;4.70;82.50;;;;;;4983954;28;20047;-67
2021/11/24 03:04:27;;;;;;;5.53;2.05;;;4.70;82.60;;;;;;4974071;28;20080;-64
2021/11/24 03:06:56;;;;;;;4.43;1.55;;;4.70;82.60;;;;;;4975763;28;20046;-66
2021/11/24 03:09:23;;;;;;;4.00;1.77;;;4.70;82.60;;;;;;4976606;28;20062;-68
2021/11/24 03:11:50;;;;;;;5.13;2.50;;;4.70;82.60;;;;;;4974500;28;20139;-66
2021/11/24 03:14:18;;;;;;;7.10;1.67;;;4.70;82.60;;;;;;4976643;28;20054;-66
2021/11/24 03:16:45;;;;;;;3.85;1.52;;;4.70;82.60;;;;;;4972729;28;20049;-66
2021/11/24 03:19:12;;;;;;;2.10;1.90;;;4.70;82.60;;;;;;4975268;28;20047;-65
2021/11/24 03:21:39;;;;;;;3.70;1.42;;;4.70;82.60;;;;;;4976620;28;20054;-65
2021/11/24 03:24:09;;;;;;;2.78;1.33;;;4.70;82.60;;;;;;5000858;28;20066;-66
2021/11/24 03:26:36;;;;;;;2.90;1.55;;;4.70;82.60;;;;;;4977772;28;20040;-67
2021/11/24 03:29:05;;;;;;;3.45;1.25;;;4.70;82.60;;;;;;4977813;28;20046;-65
2021/11/24 03:31:39;;;;;;;3.50;1.25;;;4.70;82.60;;;;;;4983037;28;20046;-65
2021/11/24 03:34:07;;;;;;;3.88;1.08;;;4.80;82.60;;;;;;4976413;28;20054;-65
2021/11/24 03:36:35;;;;;;;4.65;1.13;;;4.80;82.50;;;;;;4978302;28;20502;-65
2021/11/24 03:39:02;;;;;;;4.53;1.42;;;4.70;82.60;;;;;;4981456;28;20054;-66
2021/11/24 03:41:29;;;;;;;2.63;1.30;;;4.70;82.70;;;;;;4977843;28;20054;-66
2021/11/24 03:43:56;;;;;;;2.15;1.23;;;4.70;82.60;;;;;;4978191;28;20263;-67
2021/11/24 03:46:23;;;;;;;3.00;1.30;;;4.70;82.80;;;;;;4979055;28;20297;-66
2021/11/24 03:48:52;;;;;;;3.25;1.20;;;4.70;82.70;;;;;;4976244;28;20041;-68
2021/11/24 03:51:19;;;;;;;4.00;1.35;;;4.80;82.70;;;;;;4975062;28;20439;-66
2021/11/24 03:53:46;;;;;;;3.55;1.55;;;4.70;82.70;;;;;;4975927;28;20056;-67
2021/11/24 03:56:14;;;;;;;4.38;1.40;;;4.80;82.70;;;;;;4975842;28;20051;-67
2021/11/24 03:58:41;;;;;;;7.32;1.58;;;4.80;82.70;;;;;;4977633;28;20133;-67
2021/11/24 04:01:09;;;;;;;3.55;1.67;;;4.70;82.70;;;;;;4974457;28;20518;-66
2021/11/24 04:03:36;;;;;;;4.82;1.55;;;4.70;82.60;;;;;;4977564;28;20042;-67
2021/11/24 04:06:04;;;;;;;2.92;1.80;;;4.70;82.70;;;;;;4974849;28;20492;-65
2021/11/24 04:08:31;;;;;;;3.30;1.30;;;4.70;82.70;;;;;;4976467;28;20043;-66
2021/11/24 04:10:58;;;;;;;4.40;1.95;;;4.70;82.70;;;;;;4977005;28;20051;-66
2021/11/24 04:13:25;;;;;;;4.20;1.85;;;4.70;82.80;;;;;;4977819;28;20407;-66
2021/11/24 04:15:52;;;;;;;4.07;1.08;;;4.70;82.70;;;;;;4975015;28;20065;-68
2021/11/24 04:18:19;;;;;;;2.30;1.00;;;4.70;82.80;;;;;;4976223;28;20637;-66
2021/11/24 04:20:46;;;;;;;3.70;1.30;;;4.60;82.80;;;;;;4977274;28;20054;-66
2021/11/24 04:23:14;;;;;;;2.55;1.25;;;4.70;82.90;;;;;;4973811;28;20054;-68
2021/11/24 04:25:41;;;;;;;3.22;1.13;;;4.60;82.90;;;;;;4974565;28;20053;-66
2021/11/24 04:28:08;;;;;;;2.75;1.35;;;4.70;82.80;;;;;;4976035;28;20056;-67
2021/11/24 04:30:35;;;;;;;3.92;1.55;;;4.70;82.80;;;;;;4977474;28;20047;-69
2021/11/24 04:33:02;;;;;;;2.60;1.10;;;4.60;82.80;;;;;;4976530;28;20556;-65
2021/11/24 04:35:29;;;;;;;2.75;1.20;;;4.60;82.80;;;;;;4978252;28;20042;-66
2021/11/24 04:37:56;;;;;;;2.53;1.08;;;4.60;82.80;;;;;;4977436;28;20682;-68
2021/11/24 04:40:25;;;;;;;6.47;2.45;;;4.70;82.80;;;;;;4977133;28;21786;-65
2021/11/24 04:42:53;;;;;;;3.00;1.60;;;4.60;82.70;;;;;;4975346;28;20054;-67
2021/11/24 04:45:21;;;;;;;3.78;1.67;;;4.60;82.80;;;;;;4976319;28;20074;-67
2021/11/24 04:47:49;;;;;;;4.03;1.50;;;4.60;82.70;;;;;;4977243;28;20042;-68
2021/11/24 04:50:16;;;;;;;3.42;1.55;;;4.60;82.70;;;;;;4976095;28;20053;-65
2021/11/24 04:52:44;;;;;;;2.97;1.33;;;4.60;82.70;;;;;;4976974;28;20038;-66
2021/11/24 04:55:11;;;;;;;3.83;1.50;;;4.60;82.80;;;;;;4975805;28;20062;-68
2021/11/24 04:57:39;;;;;;;3.75;1.73;;;4.60;82.80;;;;;;4977273;28;20073;-68
2021/11/24 05:00:12;;;;;;;4.07;1.63;;;4.60;82.80;;;;;;4972374;28;20518;-66
2021/11/24 05:02:39;;;;;;;6.07;2.53;;;4.60;82.80;;;;;;4976535;28;20126;-67
2021/11/24 05:05:06;;;;;;;3.35;1.50;;;4.60;82.90;;;;;;4979392;28;20142;-67
2021/11/24 05:07:33;;;;;;;6.15;2.38;;;4.60;82.90;;;;;;4974987;28;20050;-65
2021/11/24 05:10:00;;;;;;;5.22;2.20;;;4.60;82.90;;;;;;4975484;28;20161;-65
2021/11/24 05:12:29;;;;;;;4.63;2.05;;;4.60;82.80;;;;;;4976739;28;20069;-66
2021/11/24 05:14:59;;;;;;;5.00;2.20;;;4.60;82.80;;;;;;4978873;28;20483;-65
2021/11/24 05:17:26;;;;;;;5.28;2.17;;;4.60;82.80;;;;;;4977778;28;20073;-68
2021/11/24 05:19:54;;;;;;;6.78;2.00;;;4.60;82.90;;;;;;4976295;28;20427;-66
2021/11/24 05:22:21;;;;;;;5.25;2.90;;;4.60;82.80;;;;;;4976633;28;20326;-66
2021/11/24 05:24:48;;;;;;;6.82;2.63;;;4.60;82.70;;;;;;4977899;28;20097;-66
2021/11/24 05:27:15;;;;;;;4.18;1.90;;;4.60;82.70;;;;;;4975548;28;20591;-65
2021/11/24 05:29:42;;;;;;;8.32;2.08;;;4.60;82.80;;;;;;4975259;28;20043;-66
2021/11/24 05:32:10;;;;;;;5.55;1.98;;;4.60;82.80;;;;;;4974782;28;20140;-65
2021/11/24 05:34:37;;;;;;;5.05;2.33;;;4.60;82.80;;;;;;4980331;28;20058;-65
2021/11/24 05:37:07;;;;;;;4.60;2.40;;;4.60;82.80;;;;;;4974373;28;20396;-68
2021/11/24 05:39:34;;;;;;;4.45;2.25;;;4.60;82.70;;;;;;4973214;28;20401;-68
2021/11/24 05:42:02;;;;;;;5.38;2.88;;;4.50;82.70;;;;;;4973940;28;20058;-64
2021/11/24 05:44:33;;;;;;;3.47;1.88;;;4.50;82.70;;;;;;4975711;28;20050;-66
2021/11/24 05:47:06;;;;;;;6.25;2.47;;;4.50;82.70;;;;;;4973013;28;20467;-67
2021/11/24 05:49:36;;;;;;;6.93;3.15;;;4.50;82.70;;;;;;4959278;28;20404;-65
2021/11/24 05:52:05;;;;;;;4.25;2.03;;;4.50;82.80;;;;;;4975965;28;20069;-65
2021/11/24 05:54:32;;;;;;;5.30;2.53;;;4.50;82.80;;;;;;4975009;28;20046;-67
2021/11/24 05:57:00;;;;;;;6.50;2.47;;;4.50;82.80;;;;;;4975911;28;20085;-68
2021/11/24 05:59:34;;;;;;;5.90;2.30;;;4.40;82.80;;;;;;4964352;28;20440;-65
2021/11/24 06:02:01;;;;;;;6.88;2.25;;;4.50;82.80;;;;;;4972777;28;20123;-67
2021/11/24 06:04:28;;;;;;;4.32;2.08;;;4.40;82.80;;;;;;4977458;28;20042;-67
2021/11/24 06:06:56;;;;;;;5.65;2.25;;;4.40;82.80;;;;;;4980998;28;20067;-66
2021/11/24 06:09:23;;;;;;;5.57;2.85;;;4.40;82.90;;;;;;4976795;28;20530;-65
2021/11/24 06:11:50;;;;;;;6.05;2.10;;;4.40;82.80;;;;;;4976089;28;20050;-69
2021/11/24 06:14:18;;;;;;;6.65;2.45;;;4.40;82.80;;;;;;4978240;28;20124;-65
2021/11/24 06:16:45;;;;;;;6.05;2.55;;;4.40;82.60;;;;;;5002392;28;20043;-67
2021/11/24 06:19:12;;;;;;;5.63;2.25;;;4.40;82.70;;;;;;4981568;28;20082;-65
2021/11/24 06:21:39;;;;;;;2.83;1.95;;;4.30;82.70;;;;;;4979723;28;20050;-65
2021/11/24 06:24:07;;;;;;;5.38;2.15;;;4.40;82.70;;;;;;4978195;28;20048;-66
2021/11/24 06:26:34;;;;;;;5.07;2.25;;;4.40;82.60;;;;;;4981185;28;20129;-66
2021/11/24 06:29:01;;;;;;;5.45;2.30;;;4.40;82.60;;;;;;4977610;28;20070;-66
2021/11/24 06:31:29;;;;;;;5.38;2.35;;;4.40;82.60;;;;;;4981158;28;20557;-65
2021/11/24 06:33:56;;;;;;;5.40;2.47;;;4.40;82.60;;;;;;4978770;28;20483;-67
2021/11/24 06:36:24;;;;;;;4.40;2.05;;;4.40;82.70;;;;;;4983178;28;20070;-64
2021/11/24 06:38:51;;;;;;;6.68;2.38;;;4.30;82.80;;;;;;4980227;28;20047;-70
2021/11/24 06:41:20;;;;;;;5.63;2.20;;;4.40;82.90;;;;;;4978409;28;20082;-66
2021/11/24 06:43:47;;;;;;;6.18;2.25;;;4.40;83.00;;;;;;4977802;28;20042;-67
2021/11/24 06:46:15;;;;;;;4.55;2.13;;;4.40;83.10;;;;;;4976663;28;20141;-66
2021/11/24 06:48:42;;;;;;;4.22;2.00;;;4.40;83.00;;;;;;4967442;28;20414;-66
2021/11/24 06:51:10;;;;;;;6.22;2.08;;;4.40;83.20;;;;;;4977954;28;20570;-66
2021/11/24 06:53:37;;;;;;;4.20;2.17;;;4.40;83.10;;;;;;4977002;28;20050;-66
2021/11/24 06:56:04;;;;;;;4.32;2.40;;;4.40;83.20;;;;;;4977612;28;20050;-68
2021/11/24 06:58:33;;;;;;;4.75;1.65;;;4.40;83.20;;;;;;4977648;28;20302;-66
2021/11/24 07:01:01;;;;;;;4.47;2.10;;;4.40;83.20;;;;;;4975863;28;20043;-66
2021/11/24 07:03:35;;;;;;;6.35;1.83;;;4.40;83.30;;;;;;4973314;28;20051;-65
2021/11/24 07:06:02;;;;;;;4.55;1.80;;;4.40;83.30;;;;;;4964225;28;20399;-65
2021/11/24 07:08:29;;;;;;;3.33;1.65;;;4.50;83.20;;;;;;4979683;28;20132;-65
2021/11/24 07:10:56;;;;;;;5.03;2.10;;;4.50;83.20;;;;;;4977301;28;20124;-66
2021/11/24 07:13:23;;;;;;;3.88;1.95;;;4.50;83.10;;;;;;4979760;28;20055;-68
2021/11/24 07:15:52;;;;;;;9.02;1.80;;;4.50;83.20;;;;;;4977023;28;20063;-67
2021/11/24 07:18:18;;;;;;;4.57;1.83;;;4.50;83.10;;;;;;4979591;28;20134;-67
2021/11/24 07:20:52;;;;;;;5.00;2.05;;;4.60;83.20;;;;;;4977200;28;20068;-65
2021/11/24 07:23:18;;;;;;;5.95;2.53;;;4.60;83.20;;;;;;4976198;28;20054;-65
2021/11/24 07:25:45;;;;;;;3.83;1.88;;;4.60;83.30;;;;;;4978971;28;20084;-68
2021/11/24 07:28:14;;;;;;;6.60;2.40;;;4.60;83.30;;;;;;4975350;28;20153;-66
2021/11/24 07:30:41;;;;;;;8.23;2.28;;;4.60;83.40;;;;;;4977449;28;20054;-65
2021/11/24 07:33:09;;;;;;;6.15;2.40;;;4.60;83.40;;;;;;4974212;28;20063;-65
2021/11/24 07:35:36;;;;;;;5.38;2.20;;;4.60;83.40;;;;;;4978314;28;20134;-66
2021/11/24 07:38:04;;;;;;;5.82;2.40;;;4.70;83.30;;;;;;4976953;28;20049;-66
2021/11/24 07:40:31;;;;;;;5.97;3.17;;;4.70;83.30;;;;;;4974804;28;20046;-69
2021/11/24 07:42:58;;;;;;;7.75;2.25;;;4.70;83.40;;;;;;4976458;28;20042;-66
2021/11/24 07:45:25;;;;;;;4.97;2.35;;;4.70;83.50;;;;;;4978036;28;20054;-68
2021/11/24 07:47:52;;;;;;;6.20;2.75;;;4.70;83.40;;;;;;4977932;28;20063;-66
2021/11/24 07:50:20;;;;;;;4.53;2.50;;;4.70;83.50;;;;;;4973948;28;20046;-68
2021/11/24 07:52:47;;;;;;;3.72;2.03;;;4.70;83.40;;;;;;4973742;28;20058;-66
2021/11/24 07:55:14;;;;;;;6.25;2.85;;;4.70;83.40;;;;;;4977449;28;20122;-66
2021/11/24 07:57:45;;;;;;;5.25;2.78;;;4.70;83.40;;;;;;4977144;28;20129;-65
2021/11/24 08:00:13;;;;;;;9.07;3.88;;;4.80;83.40;;;;;;4976538;28;20062;-65
2021/11/24 08:02:41;;;;;;;7.50;3.42;;;4.90;83.40;;;;;;4980349;28;20432;-66
2021/11/24 08:05:08;;;;;;;6.88;3.50;;;4.90;83.40;;;;;;4977423;28;20043;-64
2021/11/24 08:07:37;;;;;;;9.45;4.65;;;4.90;83.30;;;;;;4976203;28;20491;-68
2021/11/24 08:10:04;;;;;;;7.07;4.03;;;4.90;83.40;;;;;;4971106;28;20058;-67
2021/11/24 08:12:31;;;;;;;7.97;3.60;;;4.90;83.30;;;;;;4973540;28;20111;-66
2021/11/24 08:14:58;;;;;;;8.82;3.13;;;5.00;83.40;;;;;;4971111;28;20613;-66
2021/11/24 08:17:26;;;;;;;6.07;3.33;;;4.90;83.40;;;;;;4971949;28;20057;-66
2021/11/24 08:19:53;;;;;;;10.25;3.42;;;5.00;83.30;;;;;;4971245;28;20047;-68
2021/11/24 08:22:22;;;;;;;9.10;4.00;;;5.00;83.40;;;;;;4969979;28;20067;-67
2021/11/24 08:24:51;;;;;;;9.93;3.72;;;5.00;83.30;;;;;;4971884;28;20053;-66
2021/11/24 08:27:18;;;;;;;8.98;4.43;;;5.00;83.40;;;;;;4973211;28;20507;-67
2021/11/24 08:29:45;;;;;;;8.90;3.05;;;5.10;83.40;;;;;;4972502;28;20047;-67
2021/11/24 08:32:12;;;;;;;7.93;3.80;;;5.10;83.30;;;;;;4965510;28;20054;-68
2021/11/24 08:34:39;;;;;;;8.20;3.55;;;5.20;83.30;;;;;;4979846;28;20046;-66
2021/11/24 08:37:06;;;;;;;8.68;3.65;;;5.20;83.20;;;;;;4974247;28;20042;-66
2021/11/24 08:39:33;;;;;;;12.70;5.45;;;5.20;83.10;;;;;;4974823;28;20042;-66
2021/11/24 08:42:01;;;;;;;13.57;4.68;;;5.20;83.20;;;;;;4976503;28;20047;-65
2021/11/24 08:44:29;;;;;;;9.02;4.55;;;5.20;83.20;;;;;;4976666;28;20372;-67
2021/11/24 08:46:56;;;;;;;9.45;4.03;;;5.30;83.20;;;;;;4974164;28;20043;-68
2021/11/24 08:49:23;;;;;;;8.75;4.28;;;5.30;83.20;;;;;;4972683;28;20060;-66
2021/11/24 08:51:50;;;;;;;8.48;3.22;;;5.40;83.00;;;;;;4973129;28;20077;-66
2021/11/24 08:54:17;;;;;;;9.88;4.45;;;5.30;83.00;;;;;;4972965;28;20137;-66
2021/11/24 08:56:44;;;;;;;9.98;4.78;;;5.40;82.90;;;;;;4973309;28;20381;-68
2021/11/24 08:59:12;;;;;;;10.20;4.43;;;5.40;83.00;;;;;;4975443;28;20050;-65
2021/11/24 09:01:40;;;;;;;11.80;5.35;;;5.40;83.00;;;;;;4971800;28;20054;-73
2021/11/24 09:04:07;;;;;;;9.25;5.15;;;5.50;83.00;;;;;;4977415;28;20123;-75
2021/11/24 09:06:35;;;;;;;14.57;8.18;;;5.50;83.00;;;;;;4975541;28;20391;-73
2021/11/24 09:09:03;;;;;;;15.27;7.45;;;5.50;83.10;;;;;;4976197;28;20070;-73
2021/11/24 09:11:31;;;;;;;24.05;11.85;;;5.60;83.10;;;;;;4976166;28;20046;-72
2021/11/24 09:13:58;;;;;;;18.92;8.57;;;5.60;83.00;;;;;;4973593;28;20047;-73
2021/11/24 09:16:27;;;;;;;27.35;13.70;;;5.60;83.00;;;;;;4974148;28;20066;-73
2021/11/24 09:18:54;;;;;;;22.38;10.48;;;5.60;83.00;;;;;;4975918;28;20602;-73
2021/11/24 09:21:23;;;;;;;20.95;11.15;;;5.60;82.80;;;;;;4974685;28;20137;-73
2021/11/24 09:23:50;;;;;;;21.98;9.65;;;5.70;82.70;;;;;;4975447;28;20058;-73
2021/11/24 09:26:25;;;;;;;17.42;8.32;;;5.70;82.80;;;;;;4978337;28;20696;-74
2021/11/24 09:28:53;;;;;;;18.13;8.82;;;5.70;82.80;;;;;;4975614;28;20138;-73
2021/11/24 09:31:20;;;;;;;15.35;7.70;;;5.80;82.70;;;;;;4976064;28;20057;-72
2021/11/24 09:33:48;;;;;;;16.38;6.68;;;5.90;82.60;;;;;;4983527;28;20058;-74
2021/11/24 09:36:15;;;;;;;12.27;6.40;;;5.90;82.60;;;;;;4978859;28;20046;-73
2021/11/24 09:38:42;;;;;;;12.57;5.90;;;5.90;82.60;;;;;;4976821;28;20480;-73
2021/11/24 09:41:11;;;;;;;11.05;5.68;;;5.90;82.40;;;;;;4980448;28;20056;-74
2021/11/24 09:43:41;;;;;;;11.18;5.30;;;5.90;82.40;;;;;;4976575;28;20140;-74
2021/11/24 09:46:09;;;;;;;10.30;4.30;;;5.90;82.30;;;;;;4975519;28;20074;-74
2021/11/24 09:48:36;;;;;;;11.98;5.75;;;6.00;82.30;;;;;;4974833;28;20491;-72
2021/11/24 09:51:05;;;;;;;9.43;4.47;;;6.00;82.20;;;;;;4976114;28;20050;-72
2021/11/24 09:53:33;;;;;;;7.25;3.88;;;6.00;82.20;;;;;;4974576;28;20065;-72
2021/11/24 09:56:01;;;;;;;7.55;4.05;;;6.00;82.10;;;;;;4974958;28;20502;-73
2021/11/24 09:58:28;;;;;;;6.97;3.75;;;6.10;82.10;;;;;;4975682;28;20055;-71
2021/11/24 10:00:57;;;;;;;10.10;4.30;;;6.10;82.00;;;;;;4973718;28;20937;-72
2021/11/24 10:03:25;;;;;;;8.52;3.85;;;6.10;82.00;;;;;;4975765;28;20382;-72
2021/11/24 10:05:52;;;;;;;7.25;4.07;;;6.20;82.10;;;;;;4974362;28;20047;-74
2021/11/24 10:08:22;;;;;;;8.13;3.65;;;6.20;82.10;;;;;;4977392;28;20510;-71
2021/11/24 10:10:49;;;;;;;7.63;3.22;;;6.20;82.00;;;;;;4975604;28;20073;-74
2021/11/24 10:13:16;;;;;;;7.65;4.20;;;6.30;82.00;;;;;;4974173;28;20616;-73
2021/11/24 10:15:47;;;;;;;7.30;3.33;;;6.40;81.90;;;;;;4977324;28;20448;-73
2021/11/24 10:18:20;;;;;;;6.72;3.03;;;6.40;81.80;;;;;;4975197;28;20137;-72
2021/11/24 10:20:50;;;;;;;6.75;3.83;;;6.50;81.80;;;;;;4977095;28;20085;-74
2021/11/24 10:23:24;;;;;;;7.77;3.30;;;6.60;81.50;;;;;;4966004;28;20050;-73
2021/11/24 10:25:51;;;;;;;7.80;2.72;;;6.60;81.30;;;;;;4972247;28;20547;-72
2021/11/24 10:28:26;;;;;;;6.65;2.92;;;6.70;81.20;;;;;;4960945;28;20046;-71
2021/11/24 10:30:55;;;;;;;4.40;2.00;;;6.70;81.00;;;;;;4961282;28;20082;-73
2021/11/24 10:33:26;;;;;;;4.50;2.20;;;6.70;80.80;;;;;;4964158;28;20054;-73
2021/11/24 10:36:10;;;;;;;;;;;6.80;80.70;;;;;;4964446;28;20053;-72
2021/11/24 10:38:43;;;;;;;4.55;1.73;;;6.80;80.60;;;;;;4961916;28;19926;-72
2021/11/24 10:41:11;;;;;;;3.78;1.95;;;6.90;80.60;;;;;;4958075;28;20050;-71
2021/11/24 10:43:45;;;;;;;3.97;2.05;;;6.90;80.50;;;;;;4960046;28;20057;-71
2021/11/24 10:46:17;;;;;;;5.05;2.28;;;6.90;80.40;;;;;;4962837;28;20054;-74
2021/11/24 10:48:44;;;;;;;2.85;1.50;;;6.90;80.20;;;;;;4958866;28;20050;-74
2021/11/24 10:51:33;;;;;;;3.58;1.35;;;7.00;80.10;;;;;;4961958;28;23325;-72
2021/11/24 10:54:17;;;;;;;3.30;1.27;;;7.00;79.60;;;;;;4963207;28;20062;-73
2021/11/24 10:57:14;;;;;;;2.22;1.02;;;7.00;78.40;;;;;;4957884;28;21571;-74
2021/11/24 10:59:43;;;;;;;2.72;0.82;;;7.00;78.50;;;;;;4984668;28;20053;-72
2021/11/24 11:02:26;;;;;;;1.52;0.70;;;7.10;78.60;;;;;;4974446;28;20046;-72
2021/11/24 11:05:12;;;;;;;1.27;0.60;;;7.10;78.50;;;;;;4974552;28;20053;-73
2021/11/24 11:07:41;;;;;;;1.00;0.45;;;7.10;77.90;;;;;;4975602;28;20064;-74
2021/11/24 11:10:13;;;;;;;0.75;0.40;;;7.10;78.10;;;;;;4974090;28;20169;-71
2021/11/24 11:12:43;;;;;;;1.35;0.45;;;7.10;77.50;;;;;;4966920;28;20124;-73
2021/11/24 11:15:22;;;;;;;2.22;0.60;;;7.20;77.00;;;;;;4968063;28;20128;-74
2021/11/24 11:17:57;;;;;;;0.98;0.38;;;7.10;77.10;;;;;;4966851;28;20129;-73
2021/11/24 11:20:27;;;;;;;0.25;0.20;;;7.20;77.20;;;;;;4972392;28;20059;-73
2021/11/24 11:23:01;;;;;;;1.93;0.47;;;7.20;77.00;;;;;;4973632;28;20119;-74
2021/11/24 11:25:30;;;;;;;0.73;0.40;;;7.20;77.10;;;;;;4978676;28;20116;-74
2021/11/24 11:27:57;;;;;;;0.73;0.35;;;7.20;76.90;;;;;;4971201;28;20059;-74
2021/11/24 11:30:25;;;;;;;1.52;0.50;;;7.30;76.90;;;;;;4975515;28;20061;-72
2021/11/24 11:32:52;;;;;;;1.52;0.60;;;7.30;76.30;;;;;;4974808;28;20050;-71
2021/11/24 11:35:19;;;;;;;1.25;0.40;;;7.30;76.70;;;;;;4963338;28;20057;-73
2021/11/24 11:37:48;;;;;;;1.38;0.47;;;7.30;76.70;;;;;;4969179;28;20046;-75
2021/11/24 11:40:16;;;;;;;1.85;0.45;;;7.30;76.80;;;;;;4969221;28;20485;-71
2021/11/24 11:42:46;;;;;;;1.42;0.50;;;7.40;76.50;;;;;;4970849;28;20484;-74
2021/11/24 11:45:15;;;;;;;1.20;0.60;;;7.40;76.20;;;;;;4975997;28;20072;-74
2021/11/24 11:47:44;;;;;;;1.88;1.40;;;7.40;76.30;;;;;;4977231;28;22121;-73
2021/11/24 11:50:13;;;;;;;1.00;0.43;;;7.40;76.00;;;;;;4977980;28;20505;-74
2021/11/24 11:52:42;;;;;;;1.92;0.50;;;7.40;76.10;;;;;;4976915;28;20057;-72
2021/11/24 11:55:20;;;;;;;1.90;0.63;;;7.40;76.10;;;;;;4977513;28;20050;-74
2021/11/24 11:57:49;;;;;;;1.88;0.65;;;7.50;76.20;;;;;;4978488;28;20174;-73
2021/11/24 12:00:16;;;;;;;1.30;0.38;;;7.50;75.90;;;;;;4973331;28;20130;-73
2021/11/24 12:02:50;;;;;;;2.10;0.80;;;7.50;75.80;;;;;;4973731;28;20061;-75
2021/11/24 12:05:18;;;;;;;1.05;0.50;;;7.50;76.00;;;;;;4969247;28;20379;-71
2021/11/24 12:08:07;;;;;;;2.25;0.98;;;7.50;75.90;;;;;;4974280;28;20467;-73
2021/11/24 12:10:56;;;;;;;3.17;0.88;;;7.60;76.10;;;;;;4975455;28;20157;-73
2021/11/24 12:13:33;;;;;;;2.83;0.70;;;7.60;75.60;;;;;;4974861;28;20046;-72
2021/11/24 12:16:40;;;;;;;1.23;0.43;;;7.60;75.20;;;;;;4975278;28;20070;-72
2021/11/24 12:19:17;;;;;;;4.00;0.70;;;7.60;75.20;;;;;;4975445;28;20054;-72
2021/11/24 12:21:52;;;;;;;1.25;0.40;;;7.60;74.40;;;;;;4970333;28;20732;-72
2021/11/24 12:24:37;;;;;;;2.30;0.52;;;7.60;74.30;;;;;;4971804;28;20054;-73
2021/11/24 12:27:04;;;;;;;2.15;0.40;;;7.60;74.60;;;;;;4971822;28;20050;-72
2021/11/24 12:29:47;;;;;;;2.40;0.60;;;7.60;74.60;;;;;;4976073;28;20285;-74
2021/11/24 12:32:16;;;;;;;2.33;0.43;;;7.60;74.70;;;;;;4968729;28;20047;-72
2021/11/24 12:34:53;;;;;;;0.55;0.30;;;7.60;74.70;;;;;;4970778;28;20159;-72
2021/11/24 12:37:20;;;;;;;1.48;0.70;;;7.60;74.50;;;;;;4962754;28;20409;-73
2021/11/24 12:39:48;;;;;;;1.90;0.60;;;7.70;74.60;;;;;;4960021;28;20085;-72
2021/11/24 12:42:15;;;;;;;2.15;0.70;;;7.60;74.80;;;;;;4956010;28;20055;-71
2021/11/24 12:44:54;;;;;;;2.03;0.73;;;7.70;74.60;;;;;;4962371;28;20046;-73
2021/11/24 12:47:21;;;;;;;2.78;0.80;;;7.70;74.60;;;;;;4960905;28;20058;-73
2021/11/24 12:49:48;;;;;;;1.85;0.75;;;7.70;74.20;;;;;;4962751;28;20437;-73
2021/11/24 12:52:19;;;;;;;1.65;0.70;;;7.70;74.30;;;;;;4960210;28;20054;-72
2021/11/24 12:54:48;;;;;;;3.08;0.88;;;7.70;74.20;;;;;;4964315;28;20500;-72
2021/11/24 12:57:15;;;;;;;1.45;0.70;;;7.70;74.20;;;;;;4964815;28;20143;-71
2021/11/24 12:59:43;;;;;;;1.40;0.65;;;7.70;74.00;;;;;;4964287;28;20052;-70
2021/11/24 13:02:14;;;;;;;1.92;0.77;;;7.70;73.80;;;;;;4964316;28;20247;-72
2021/11/24 13:04:44;;;;;;;2.88;0.93;;;7.70;74.10;;;;;;4948248;28;20564;-72